sensor_id;sensor_type;location;lat;lon;timestamp;P1;durP1;ratioP1;P2;durP2;ratioP2
13289;SDS011;6713;50.954;5.310;2023-12-07T00:01:17;68.70;;;19.63;;
13289;SDS011;6713;50.954;5.310;2023-12-07T00:03:43;41.57;;;18.00;;
13289;SDS011;6713;50.954;5.310;2023-12-07T00:06:10;47.47;;;17.10;;
13289;SDS011;6713;50.954;5.310;2023-12-07T00:08:37;45.23;;;19.47;;
13289;SDS011;6713;50.954;5.310;2023-12-07T00:11:04;58.07;;;18.43;;
13289;SDS011;6713;50.954;5.310;2023-12-07T00:13:31;32.40;;;17.07;;
13289;SDS011;6713;50.954;5.310;2023-12-07T00:15:57;67.10;;;20.27;;
13289;SDS011;6713;50.954;5.310;2023-12-07T00:18:23;63.83;;;20.90;;
13289;SDS011;6713;50.954;5.310;2023-12-07T00:20:50;121.20;;;24.30;;
13289;SDS011;6713;50.954;5.310;2023-12-07T00:23:16;67.33;;;21.40;;
13289;SDS011;6713;50.954;5.310;2023-12-07T00:25:44;58.73;;;19.47;;
13289;SDS011;6713;50.954;5.310;2023-12-07T00:28:11;33.80;;;14.73;;
13289;SDS011;6713;50.954;5.310;2023-12-07T00:30:37;69.50;;;19.97;;
13289;SDS011;6713;50.954;5.310;2023-12-07T00:33:04;38.93;;;17.97;;
13289;SDS011;6713;50.954;5.310;2023-12-07T00:35:30;52.40;;;19.83;;
13289;SDS011;6713;50.954;5.310;2023-12-07T00:37:56;81.17;;;21.13;;
13289;SDS011;6713;50.954;5.310;2023-12-07T00:40:23;44.50;;;19.60;;
13289;SDS011;6713;50.954;5.310;2023-12-07T00:42:50;48.53;;;19.30;;
13289;SDS011;6713;50.954;5.310;2023-12-07T00:45:17;80.47;;;20.67;;
13289;SDS011;6713;50.954;5.310;2023-12-07T00:47:44;96.47;;;22.00;;
13289;SDS011;6713;50.954;5.310;2023-12-07T00:50:11;46.00;;;17.53;;
13289;SDS011;6713;50.954;5.310;2023-12-07T00:52:38;63.73;;;18.93;;
13289;SDS011;6713;50.954;5.310;2023-12-07T00:55:05;33.67;;;17.23;;
13289;SDS011;6713;50.954;5.310;2023-12-07T00:57:31;104.63;;;22.97;;
13289;SDS011;6713;50.954;5.310;2023-12-07T00:59:59;64.57;;;18.70;;
13289;SDS011;6713;50.954;5.310;2023-12-07T01:02:26;60.47;;;18.03;;
13289;SDS011;6713;50.954;5.310;2023-12-07T01:04:52;66.37;;;18.67;;
13289;SDS011;6713;50.954;5.310;2023-12-07T01:07:18;85.03;;;20.13;;
13289;SDS011;6713;50.954;5.310;2023-12-07T01:09:45;51.87;;;17.40;;
13289;SDS011;6713;50.954;5.310;2023-12-07T01:12:12;102.90;;;22.77;;
13289;SDS011;6713;50.954;5.310;2023-12-07T01:14:38;42.70;;;17.47;;
13289;SDS011;6713;50.954;5.310;2023-12-07T01:17:06;63.43;;;18.50;;
13289;SDS011;6713;50.954;5.310;2023-12-07T01:19:32;130.53;;;23.07;;
13289;SDS011;6713;50.954;5.310;2023-12-07T01:21:59;48.63;;;16.27;;
13289;SDS011;6713;50.954;5.310;2023-12-07T01:24:25;60.13;;;18.30;;
13289;SDS011;6713;50.954;5.310;2023-12-07T01:26:52;52.40;;;18.00;;
13289;SDS011;6713;50.954;5.310;2023-12-07T01:29:19;58.73;;;20.13;;
13289;SDS011;6713;50.954;5.310;2023-12-07T01:31:45;49.97;;;19.83;;
13289;SDS011;6713;50.954;5.310;2023-12-07T01:34:13;47.53;;;17.50;;
13289;SDS011;6713;50.954;5.310;2023-12-07T01:36:39;51.40;;;17.80;;
13289;SDS011;6713;50.954;5.310;2023-12-07T01:39:06;37.87;;;17.03;;
13289;SDS011;6713;50.954;5.310;2023-12-07T01:41:32;43.67;;;18.47;;
13289;SDS011;6713;50.954;5.310;2023-12-07T01:43:59;44.93;;;18.80;;
13289;SDS011;6713;50.954;5.310;2023-12-07T01:46:25;35.40;;;16.13;;
13289;SDS011;6713;50.954;5.310;2023-12-07T01:48:51;40.50;;;16.23;;
13289;SDS011;6713;50.954;5.310;2023-12-07T01:51:20;58.93;;;19.03;;
13289;SDS011;6713;50.954;5.310;2023-12-07T01:53:46;91.53;;;20.03;;
13289;SDS011;6713;50.954;5.310;2023-12-07T01:56:13;51.77;;;16.90;;
13289;SDS011;6713;50.954;5.310;2023-12-07T01:58:41;63.03;;;18.47;;
13289;SDS011;6713;50.954;5.310;2023-12-07T02:01:07;41.43;;;17.00;;
13289;SDS011;6713;50.954;5.310;2023-12-07T02:03:36;41.73;;;14.87;;
13289;SDS011;6713;50.954;5.310;2023-12-07T02:06:03;28.90;;;14.33;;
13289;SDS011;6713;50.954;5.310;2023-12-07T02:08:31;36.87;;;17.33;;
13289;SDS011;6713;50.954;5.310;2023-12-07T02:10:58;37.53;;;14.00;;
13289;SDS011;6713;50.954;5.310;2023-12-07T02:13:24;39.37;;;15.87;;
13289;SDS011;6713;50.954;5.310;2023-12-07T02:15:51;38.83;;;16.30;;
13289;SDS011;6713;50.954;5.310;2023-12-07T02:18:19;44.17;;;15.87;;
13289;SDS011;6713;50.954;5.310;2023-12-07T02:20:49;32.60;;;13.93;;
13289;SDS011;6713;50.954;5.310;2023-12-07T02:23:18;25.50;;;13.53;;
13289;SDS011;6713;50.954;5.310;2023-12-07T02:25:48;33.93;;;14.07;;
13289;SDS011;6713;50.954;5.310;2023-12-07T02:28:33;26.63;;;14.77;;
13289;SDS011;6713;50.954;5.310;2023-12-07T02:30:59;28.80;;;14.10;;
13289;SDS011;6713;50.954;5.310;2023-12-07T02:33:26;33.00;;;13.27;;
13289;SDS011;6713;50.954;5.310;2023-12-07T02:35:52;32.90;;;13.87;;
13289;SDS011;6713;50.954;5.310;2023-12-07T02:38:18;27.90;;;13.40;;
13289;SDS011;6713;50.954;5.310;2023-12-07T02:40:47;27.50;;;13.33;;
13289;SDS011;6713;50.954;5.310;2023-12-07T02:43:14;19.23;;;12.83;;
13289;SDS011;6713;50.954;5.310;2023-12-07T02:45:42;23.87;;;13.33;;
13289;SDS011;6713;50.954;5.310;2023-12-07T02:48:08;22.10;;;12.17;;
13289;SDS011;6713;50.954;5.310;2023-12-07T02:50:35;24.73;;;12.27;;
13289;SDS011;6713;50.954;5.310;2023-12-07T02:53:01;20.37;;;11.83;;
13289;SDS011;6713;50.954;5.310;2023-12-07T02:55:27;26.93;;;12.80;;
13289;SDS011;6713;50.954;5.310;2023-12-07T02:57:54;28.67;;;12.20;;
13289;SDS011;6713;50.954;5.310;2023-12-07T03:00:20;22.83;;;12.20;;
13289;SDS011;6713;50.954;5.310;2023-12-07T03:02:48;20.80;;;12.53;;
13289;SDS011;6713;50.954;5.310;2023-12-07T03:05:15;21.93;;;12.07;;
13289;SDS011;6713;50.954;5.310;2023-12-07T03:07:42;26.57;;;12.50;;
13289;SDS011;6713;50.954;5.310;2023-12-07T03:10:08;21.67;;;11.67;;
13289;SDS011;6713;50.954;5.310;2023-12-07T03:12:35;18.30;;;10.70;;
13289;SDS011;6713;50.954;5.310;2023-12-07T03:15:01;21.93;;;11.73;;
13289;SDS011;6713;50.954;5.310;2023-12-07T03:17:27;25.17;;;12.43;;
13289;SDS011;6713;50.954;5.310;2023-12-07T03:19:55;24.60;;;13.17;;
13289;SDS011;6713;50.954;5.310;2023-12-07T03:22:22;24.50;;;12.83;;
13289;SDS011;6713;50.954;5.310;2023-12-07T03:24:49;23.03;;;12.73;;
13289;SDS011;6713;50.954;5.310;2023-12-07T03:27:16;22.70;;;12.57;;
13289;SDS011;6713;50.954;5.310;2023-12-07T03:29:42;26.50;;;14.63;;
13289;SDS011;6713;50.954;5.310;2023-12-07T03:32:09;23.53;;;14.03;;
13289;SDS011;6713;50.954;5.310;2023-12-07T03:34:35;26.77;;;13.63;;
13289;SDS011;6713;50.954;5.310;2023-12-07T03:37:03;24.83;;;14.23;;
13289;SDS011;6713;50.954;5.310;2023-12-07T03:39:29;24.27;;;13.47;;
13289;SDS011;6713;50.954;5.310;2023-12-07T03:41:57;22.90;;;13.23;;
13289;SDS011;6713;50.954;5.310;2023-12-07T03:44:23;26.83;;;14.77;;
13289;SDS011;6713;50.954;5.310;2023-12-07T03:46:51;27.17;;;17.00;;
13289;SDS011;6713;50.954;5.310;2023-12-07T03:49:17;24.33;;;14.43;;
13289;SDS011;6713;50.954;5.310;2023-12-07T03:51:44;24.80;;;14.33;;
13289;SDS011;6713;50.954;5.310;2023-12-07T03:54:12;22.67;;;12.93;;
13289;SDS011;6713;50.954;5.310;2023-12-07T03:56:38;22.03;;;12.20;;
13289;SDS011;6713;50.954;5.310;2023-12-07T03:59:05;22.27;;;13.13;;
13289;SDS011;6713;50.954;5.310;2023-12-07T04:01:32;20.93;;;12.53;;
13289;SDS011;6713;50.954;5.310;2023-12-07T04:03:58;18.53;;;11.57;;
13289;SDS011;6713;50.954;5.310;2023-12-07T04:06:26;20.73;;;12.43;;
13289;SDS011;6713;50.954;5.310;2023-12-07T04:08:52;20.83;;;12.43;;
13289;SDS011;6713;50.954;5.310;2023-12-07T04:11:20;17.83;;;12.37;;
13289;SDS011;6713;50.954;5.310;2023-12-07T04:13:47;16.20;;;11.33;;
13289;SDS011;6713;50.954;5.310;2023-12-07T04:16:14;17.60;;;10.67;;
13289;SDS011;6713;50.954;5.310;2023-12-07T04:18:40;17.37;;;10.33;;
13289;SDS011;6713;50.954;5.310;2023-12-07T04:21:06;17.53;;;10.50;;
13289;SDS011;6713;50.954;5.310;2023-12-07T04:23:33;16.67;;;10.60;;
13289;SDS011;6713;50.954;5.310;2023-12-07T04:25:59;20.80;;;10.77;;
13289;SDS011;6713;50.954;5.310;2023-12-07T04:28:27;21.13;;;11.63;;
13289;SDS011;6713;50.954;5.310;2023-12-07T04:30:53;20.03;;;10.70;;
13289;SDS011;6713;50.954;5.310;2023-12-07T04:33:20;19.83;;;11.47;;
13289;SDS011;6713;50.954;5.310;2023-12-07T04:35:47;19.73;;;11.00;;
13289;SDS011;6713;50.954;5.310;2023-12-07T04:38:13;14.80;;;10.33;;
13289;SDS011;6713;50.954;5.310;2023-12-07T04:40:39;20.13;;;11.67;;
13289;SDS011;6713;50.954;5.310;2023-12-07T04:43:06;19.80;;;11.00;;
13289;SDS011;6713;50.954;5.310;2023-12-07T04:45:34;19.53;;;12.00;;
13289;SDS011;6713;50.954;5.310;2023-12-07T04:48:01;14.00;;;10.60;;
13289;SDS011;6713;50.954;5.310;2023-12-07T04:50:27;18.73;;;10.77;;
13289;SDS011;6713;50.954;5.310;2023-12-07T04:52:53;17.90;;;10.87;;
13289;SDS011;6713;50.954;5.310;2023-12-07T04:55:20;17.70;;;10.23;;
13289;SDS011;6713;50.954;5.310;2023-12-07T04:57:46;14.90;;;10.90;;
13289;SDS011;6713;50.954;5.310;2023-12-07T05:00:13;13.33;;;10.67;;
13289;SDS011;6713;50.954;5.310;2023-12-07T05:02:40;17.50;;;10.63;;
13289;SDS011;6713;50.954;5.310;2023-12-07T05:05:07;14.33;;;9.83;;
13289;SDS011;6713;50.954;5.310;2023-12-07T05:07:34;15.07;;;9.83;;
13289;SDS011;6713;50.954;5.310;2023-12-07T05:10:00;17.37;;;11.13;;
13289;SDS011;6713;50.954;5.310;2023-12-07T05:12:27;15.70;;;10.70;;
13289;SDS011;6713;50.954;5.310;2023-12-07T05:14:54;14.23;;;9.83;;
13289;SDS011;6713;50.954;5.310;2023-12-07T05:17:20;13.93;;;8.90;;
13289;SDS011;6713;50.954;5.310;2023-12-07T05:19:48;15.17;;;9.53;;
13289;SDS011;6713;50.954;5.310;2023-12-07T05:22:14;17.30;;;9.43;;
13289;SDS011;6713;50.954;5.310;2023-12-07T05:24:40;14.73;;;9.27;;
13289;SDS011;6713;50.954;5.310;2023-12-07T05:27:07;14.07;;;8.97;;
13289;SDS011;6713;50.954;5.310;2023-12-07T05:29:33;14.27;;;10.13;;
13289;SDS011;6713;50.954;5.310;2023-12-07T05:31:59;18.90;;;9.10;;
13289;SDS011;6713;50.954;5.310;2023-12-07T05:34:26;13.93;;;8.80;;
13289;SDS011;6713;50.954;5.310;2023-12-07T05:36:53;13.83;;;9.53;;
13289;SDS011;6713;50.954;5.310;2023-12-07T05:39:20;11.73;;;8.70;;
13289;SDS011;6713;50.954;5.310;2023-12-07T05:41:46;15.37;;;9.33;;
13289;SDS011;6713;50.954;5.310;2023-12-07T05:44:13;14.40;;;9.03;;
13289;SDS011;6713;50.954;5.310;2023-12-07T05:46:39;14.13;;;8.43;;
13289;SDS011;6713;50.954;5.310;2023-12-07T05:49:09;15.73;;;9.07;;
13289;SDS011;6713;50.954;5.310;2023-12-07T05:51:35;16.63;;;9.83;;
13289;SDS011;6713;50.954;5.310;2023-12-07T05:54:03;15.13;;;9.20;;
13289;SDS011;6713;50.954;5.310;2023-12-07T05:56:29;16.73;;;9.47;;
13289;SDS011;6713;50.954;5.310;2023-12-07T05:58:56;16.53;;;9.70;;
13289;SDS011;6713;50.954;5.310;2023-12-07T06:01:23;16.40;;;10.13;;
13289;SDS011;6713;50.954;5.310;2023-12-07T06:03:49;15.83;;;10.83;;
13289;SDS011;6713;50.954;5.310;2023-12-07T06:06:15;13.60;;;9.27;;
13289;SDS011;6713;50.954;5.310;2023-12-07T06:08:42;16.57;;;10.90;;
13289;SDS011;6713;50.954;5.310;2023-12-07T06:11:10;15.13;;;9.30;;
13289;SDS011;6713;50.954;5.310;2023-12-07T06:13:37;14.47;;;9.63;;
13289;SDS011;6713;50.954;5.310;2023-12-07T06:16:03;19.27;;;12.13;;
13289;SDS011;6713;50.954;5.310;2023-12-07T06:18:30;16.07;;;10.87;;
13289;SDS011;6713;50.954;5.310;2023-12-07T06:20:56;15.30;;;9.93;;
13289;SDS011;6713;50.954;5.310;2023-12-07T06:23:23;15.50;;;10.43;;
13289;SDS011;6713;50.954;5.310;2023-12-07T06:25:49;14.77;;;11.03;;
13289;SDS011;6713;50.954;5.310;2023-12-07T06:28:17;16.90;;;10.57;;
13289;SDS011;6713;50.954;5.310;2023-12-07T06:30:43;18.43;;;11.23;;
13289;SDS011;6713;50.954;5.310;2023-12-07T06:33:10;16.57;;;10.53;;
13289;SDS011;6713;50.954;5.310;2023-12-07T06:35:37;14.47;;;10.07;;
13289;SDS011;6713;50.954;5.310;2023-12-07T06:38:04;15.70;;;10.30;;
13289;SDS011;6713;50.954;5.310;2023-12-07T06:40:30;16.27;;;11.37;;
13289;SDS011;6713;50.954;5.310;2023-12-07T06:42:57;14.43;;;10.90;;
13289;SDS011;6713;50.954;5.310;2023-12-07T06:45:25;12.63;;;10.00;;
13289;SDS011;6713;50.954;5.310;2023-12-07T06:47:51;14.37;;;10.67;;
13289;SDS011;6713;50.954;5.310;2023-12-07T06:50:17;14.70;;;10.93;;
13289;SDS011;6713;50.954;5.310;2023-12-07T06:52:44;18.00;;;11.37;;
13289;SDS011;6713;50.954;5.310;2023-12-07T06:55:10;16.10;;;10.67;;
13289;SDS011;6713;50.954;5.310;2023-12-07T06:57:37;17.60;;;10.17;;
13289;SDS011;6713;50.954;5.310;2023-12-07T07:00:03;15.97;;;11.10;;
13289;SDS011;6713;50.954;5.310;2023-12-07T07:02:36;19.50;;;12.77;;
13289;SDS011;6713;50.954;5.310;2023-12-07T07:05:03;17.13;;;10.07;;
13289;SDS011;6713;50.954;5.310;2023-12-07T07:07:30;17.20;;;10.67;;
13289;SDS011;6713;50.954;5.310;2023-12-07T07:09:57;15.57;;;10.27;;
13289;SDS011;6713;50.954;5.310;2023-12-07T07:12:23;15.80;;;10.70;;
13289;SDS011;6713;50.954;5.310;2023-12-07T07:14:50;15.63;;;10.23;;
13289;SDS011;6713;50.954;5.310;2023-12-07T07:17:16;13.13;;;9.07;;
13289;SDS011;6713;50.954;5.310;2023-12-07T07:19:44;17.77;;;11.23;;
13289;SDS011;6713;50.954;5.310;2023-12-07T07:22:10;14.17;;;10.67;;
13289;SDS011;6713;50.954;5.310;2023-12-07T07:24:37;15.40;;;10.10;;
13289;SDS011;6713;50.954;5.310;2023-12-07T07:27:03;14.33;;;9.47;;
13289;SDS011;6713;50.954;5.310;2023-12-07T07:29:30;14.77;;;9.83;;
13289;SDS011;6713;50.954;5.310;2023-12-07T07:31:57;14.93;;;10.13;;
13289;SDS011;6713;50.954;5.310;2023-12-07T07:34:24;14.30;;;11.00;;
13289;SDS011;6713;50.954;5.310;2023-12-07T07:36:52;16.13;;;10.57;;
13289;SDS011;6713;50.954;5.310;2023-12-07T07:39:18;14.97;;;10.03;;
13289;SDS011;6713;50.954;5.310;2023-12-07T07:41:45;14.17;;;11.00;;
13289;SDS011;6713;50.954;5.310;2023-12-07T07:44:11;17.77;;;11.50;;
13289;SDS011;6713;50.954;5.310;2023-12-07T07:46:37;13.57;;;10.40;;
13289;SDS011;6713;50.954;5.310;2023-12-07T07:49:06;15.43;;;10.83;;
13289;SDS011;6713;50.954;5.310;2023-12-07T07:51:32;19.83;;;12.93;;
13289;SDS011;6713;50.954;5.310;2023-12-07T07:54:00;23.97;;;15.20;;
13289;SDS011;6713;50.954;5.310;2023-12-07T07:56:27;17.67;;;12.50;;
13289;SDS011;6713;50.954;5.310;2023-12-07T07:58:53;14.83;;;11.10;;
13289;SDS011;6713;50.954;5.310;2023-12-07T08:01:19;14.67;;;10.93;;
13289;SDS011;6713;50.954;5.310;2023-12-07T08:03:46;15.93;;;11.40;;
13289;SDS011;6713;50.954;5.310;2023-12-07T08:06:12;15.17;;;11.40;;
13289;SDS011;6713;50.954;5.310;2023-12-07T08:08:38;16.10;;;12.03;;
13289;SDS011;6713;50.954;5.310;2023-12-07T08:11:06;19.53;;;11.23;;
13289;SDS011;6713;50.954;5.310;2023-12-07T08:13:33;16.10;;;10.50;;
13289;SDS011;6713;50.954;5.310;2023-12-07T08:15:59;20.17;;;12.00;;
13289;SDS011;6713;50.954;5.310;2023-12-07T08:18:25;15.13;;;10.20;;
13289;SDS011;6713;50.954;5.310;2023-12-07T08:20:52;16.00;;;9.23;;
13289;SDS011;6713;50.954;5.310;2023-12-07T08:23:18;15.37;;;10.97;;
13289;SDS011;6713;50.954;5.310;2023-12-07T08:25:45;18.73;;;11.87;;
13289;SDS011;6713;50.954;5.310;2023-12-07T08:28:14;17.20;;;13.13;;
13289;SDS011;6713;50.954;5.310;2023-12-07T08:30:40;18.53;;;13.33;;
13289;SDS011;6713;50.954;5.310;2023-12-07T08:33:07;21.80;;;12.33;;
13289;SDS011;6713;50.954;5.310;2023-12-07T08:35:33;17.20;;;12.17;;
13289;SDS011;6713;50.954;5.310;2023-12-07T08:38:00;19.50;;;12.73;;
13289;SDS011;6713;50.954;5.310;2023-12-07T08:40:26;18.87;;;12.37;;
13289;SDS011;6713;50.954;5.310;2023-12-07T08:42:54;19.67;;;13.00;;
13289;SDS011;6713;50.954;5.310;2023-12-07T08:45:22;19.87;;;12.33;;
13289;SDS011;6713;50.954;5.310;2023-12-07T08:47:48;20.07;;;12.90;;
13289;SDS011;6713;50.954;5.310;2023-12-07T08:50:15;20.47;;;13.60;;
13289;SDS011;6713;50.954;5.310;2023-12-07T08:52:41;24.40;;;13.83;;
13289;SDS011;6713;50.954;5.310;2023-12-07T08:55:08;19.70;;;12.97;;
13289;SDS011;6713;50.954;5.310;2023-12-07T08:57:34;18.77;;;12.30;;
13289;SDS011;6713;50.954;5.310;2023-12-07T09:00:00;17.70;;;11.80;;
13289;SDS011;6713;50.954;5.310;2023-12-07T09:02:28;16.43;;;11.77;;
13289;SDS011;6713;50.954;5.310;2023-12-07T09:04:54;14.40;;;9.33;;
13289;SDS011;6713;50.954;5.310;2023-12-07T09:07:21;22.80;;;11.20;;
13289;SDS011;6713;50.954;5.310;2023-12-07T09:09:47;17.10;;;10.53;;
13289;SDS011;6713;50.954;5.310;2023-12-07T09:12:14;13.57;;;10.67;;
13289;SDS011;6713;50.954;5.310;2023-12-07T09:14:41;15.03;;;10.63;;
13289;SDS011;6713;50.954;5.310;2023-12-07T09:17:07;14.33;;;10.60;;
13289;SDS011;6713;50.954;5.310;2023-12-07T09:19:35;16.00;;;10.93;;
13289;SDS011;6713;50.954;5.310;2023-12-07T09:22:01;10.73;;;9.30;;
13289;SDS011;6713;50.954;5.310;2023-12-07T09:24:27;12.87;;;9.20;;
13289;SDS011;6713;50.954;5.310;2023-12-07T09:26:54;14.70;;;9.87;;
13289;SDS011;6713;50.954;5.310;2023-12-07T09:29:20;12.53;;;10.17;;
13289;SDS011;6713;50.954;5.310;2023-12-07T09:31:47;13.37;;;9.37;;
13289;SDS011;6713;50.954;5.310;2023-12-07T09:34:13;9.90;;;8.90;;
13289;SDS011;6713;50.954;5.310;2023-12-07T09:36:44;13.30;;;9.17;;
13289;SDS011;6713;50.954;5.310;2023-12-07T09:39:10;12.50;;;8.83;;
13289;SDS011;6713;50.954;5.310;2023-12-07T09:41:36;12.03;;;9.00;;
13289;SDS011;6713;50.954;5.310;2023-12-07T09:44:04;13.43;;;9.53;;
13289;SDS011;6713;50.954;5.310;2023-12-07T09:46:31;15.13;;;10.77;;
13289;SDS011;6713;50.954;5.310;2023-12-07T09:48:57;17.37;;;11.73;;
13289;SDS011;6713;50.954;5.310;2023-12-07T09:51:24;28.20;;;14.17;;
13289;SDS011;6713;50.954;5.310;2023-12-07T09:53:52;15.67;;;9.50;;
13289;SDS011;6713;50.954;5.310;2023-12-07T09:56:19;10.13;;;7.47;;
13289;SDS011;6713;50.954;5.310;2023-12-07T09:58:45;15.43;;;10.03;;
13289;SDS011;6713;50.954;5.310;2023-12-07T10:01:11;12.07;;;9.27;;
13289;SDS011;6713;50.954;5.310;2023-12-07T10:03:40;35.93;;;14.60;;
13289;SDS011;6713;50.954;5.310;2023-12-07T10:06:06;10.47;;;7.67;;
13289;SDS011;6713;50.954;5.310;2023-12-07T10:08:33;10.83;;;7.50;;
13289;SDS011;6713;50.954;5.310;2023-12-07T10:11:02;10.40;;;8.33;;
13289;SDS011;6713;50.954;5.310;2023-12-07T10:13:30;8.40;;;7.43;;
13289;SDS011;6713;50.954;5.310;2023-12-07T10:16:04;9.93;;;7.80;;
13289;SDS011;6713;50.954;5.310;2023-12-07T10:18:31;10.80;;;6.73;;
13289;SDS011;6713;50.954;5.310;2023-12-07T10:20:58;9.67;;;7.77;;
13289;SDS011;6713;50.954;5.310;2023-12-07T10:23:24;9.97;;;7.87;;
13289;SDS011;6713;50.954;5.310;2023-12-07T11:06:56;8.53;;;6.93;;
13289;SDS011;6713;50.954;5.310;2023-12-07T11:09:27;10.33;;;7.03;;
13289;SDS011;6713;50.954;5.310;2023-12-07T11:11:57;8.03;;;6.63;;
13289;SDS011;6713;50.954;5.310;2023-12-07T11:14:25;8.10;;;6.53;;
13289;SDS011;6713;50.954;5.310;2023-12-07T11:16:52;10.37;;;7.77;;
13289;SDS011;6713;50.954;5.310;2023-12-07T11:22:07;7.47;;;6.67;;
13289;SDS011;6713;50.954;5.310;2023-12-07T11:24:33;7.20;;;6.30;;
13289;SDS011;6713;50.954;5.310;2023-12-07T11:27:01;9.80;;;7.13;;
13289;SDS011;6713;50.954;5.310;2023-12-07T11:29:27;7.93;;;6.60;;
13289;SDS011;6713;50.954;5.310;2023-12-07T11:31:56;6.97;;;6.13;;
13289;SDS011;6713;50.954;5.310;2023-12-07T11:34:33;7.20;;;6.50;;
13289;SDS011;6713;50.954;5.310;2023-12-07T11:36:59;6.90;;;5.77;;
13289;SDS011;6713;50.954;5.310;2023-12-07T11:39:28;10.20;;;5.90;;
13289;SDS011;6713;50.954;5.310;2023-12-07T11:41:55;10.83;;;6.13;;
13289;SDS011;6713;50.954;5.310;2023-12-07T11:44:24;7.13;;;6.37;;
13289;SDS011;6713;50.954;5.310;2023-12-07T11:46:50;9.30;;;7.43;;
13289;SDS011;6713;50.954;5.310;2023-12-07T11:49:17;9.37;;;6.17;;
13289;SDS011;6713;50.954;5.310;2023-12-07T11:51:44;7.70;;;6.90;;
13289;SDS011;6713;50.954;5.310;2023-12-07T11:54:10;7.87;;;6.97;;
13289;SDS011;6713;50.954;5.310;2023-12-07T11:56:38;10.03;;;7.17;;
13289;SDS011;6713;50.954;5.310;2023-12-07T11:59:04;8.70;;;6.73;;
13289;SDS011;6713;50.954;5.310;2023-12-07T12:01:31;7.63;;;6.80;;
13289;SDS011;6713;50.954;5.310;2023-12-07T12:03:58;10.77;;;6.27;;
13289;SDS011;6713;50.954;5.310;2023-12-07T12:06:25;7.53;;;6.43;;
13289;SDS011;6713;50.954;5.310;2023-12-07T12:08:52;12.07;;;6.50;;
13289;SDS011;6713;50.954;5.310;2023-12-07T12:11:18;7.67;;;6.00;;
13289;SDS011;6713;50.954;5.310;2023-12-07T12:13:46;6.90;;;6.20;;
13289;SDS011;6713;50.954;5.310;2023-12-07T12:16:14;21.07;;;8.20;;
13289;SDS011;6713;50.954;5.310;2023-12-07T12:18:41;7.97;;;5.87;;
13289;SDS011;6713;50.954;5.310;2023-12-07T12:21:07;7.00;;;5.53;;
13289;SDS011;6713;50.954;5.310;2023-12-07T12:23:34;7.37;;;6.20;;
13289;SDS011;6713;50.954;5.310;2023-12-07T12:26:01;9.07;;;5.77;;
13289;SDS011;6713;50.954;5.310;2023-12-07T12:28:28;8.50;;;7.70;;
13289;SDS011;6713;50.954;5.310;2023-12-07T12:30:58;14.27;;;8.90;;
13289;SDS011;6713;50.954;5.310;2023-12-07T12:33:25;18.40;;;11.33;;
13289;SDS011;6713;50.954;5.310;2023-12-07T12:36:00;8.17;;;6.93;;
13289;SDS011;6713;50.954;5.310;2023-12-07T12:38:27;9.77;;;8.23;;
13289;SDS011;6713;50.954;5.310;2023-12-07T12:40:54;8.27;;;6.27;;
13289;SDS011;6713;50.954;5.310;2023-12-07T12:43:20;8.73;;;6.40;;
13289;SDS011;6713;50.954;5.310;2023-12-07T12:45:47;7.83;;;6.63;;
13289;SDS011;6713;50.954;5.310;2023-12-07T12:48:15;8.27;;;6.17;;
13289;SDS011;6713;50.954;5.310;2023-12-07T12:50:41;9.17;;;7.27;;
13289;SDS011;6713;50.954;5.310;2023-12-07T12:53:08;6.80;;;6.10;;
13289;SDS011;6713;50.954;5.310;2023-12-07T12:55:36;7.90;;;5.90;;
13289;SDS011;6713;50.954;5.310;2023-12-07T12:58:03;6.73;;;6.03;;
13289;SDS011;6713;50.954;5.310;2023-12-07T13:00:30;8.73;;;6.13;;
13289;SDS011;6713;50.954;5.310;2023-12-07T13:02:57;11.00;;;6.70;;
13289;SDS011;6713;50.954;5.310;2023-12-07T13:05:26;9.20;;;5.87;;
13289;SDS011;6713;50.954;5.310;2023-12-07T13:07:52;6.20;;;5.60;;
13289;SDS011;6713;50.954;5.310;2023-12-07T13:10:19;10.00;;;5.50;;
13289;SDS011;6713;50.954;5.310;2023-12-07T13:12:45;9.30;;;6.70;;
13289;SDS011;6713;50.954;5.310;2023-12-07T13:15:12;7.17;;;5.60;;
13289;SDS011;6713;50.954;5.310;2023-12-07T13:17:38;8.60;;;6.00;;
13289;SDS011;6713;50.954;5.310;2023-12-07T13:20:05;9.20;;;6.13;;
13289;SDS011;6713;50.954;5.310;2023-12-07T13:22:34;8.07;;;5.70;;
13289;SDS011;6713;50.954;5.310;2023-12-07T13:25:01;7.70;;;5.70;;
13289;SDS011;6713;50.954;5.310;2023-12-07T13:27:27;6.40;;;5.80;;
13289;SDS011;6713;50.954;5.310;2023-12-07T13:29:54;9.53;;;6.07;;
13289;SDS011;6713;50.954;5.310;2023-12-07T13:32:20;5.97;;;5.33;;
13289;SDS011;6713;50.954;5.310;2023-12-07T13:34:46;8.67;;;5.93;;
13289;SDS011;6713;50.954;5.310;2023-12-07T13:37:13;9.07;;;5.57;;
13289;SDS011;6713;50.954;5.310;2023-12-07T13:39:41;7.10;;;6.40;;
13289;SDS011;6713;50.954;5.310;2023-12-07T13:42:08;6.40;;;5.70;;
13289;SDS011;6713;50.954;5.310;2023-12-07T13:44:34;6.27;;;5.67;;
13289;SDS011;6713;50.954;5.310;2023-12-07T13:47:01;6.50;;;5.57;;
13289;SDS011;6713;50.954;5.310;2023-12-07T13:49:28;6.00;;;5.47;;
13289;SDS011;6713;50.954;5.310;2023-12-07T13:51:55;7.67;;;6.03;;
13289;SDS011;6713;50.954;5.310;2023-12-07T13:54:21;6.80;;;5.17;;
13289;SDS011;6713;50.954;5.310;2023-12-07T13:56:49;7.50;;;5.47;;
13289;SDS011;6713;50.954;5.310;2023-12-07T13:59:15;6.17;;;5.23;;
13289;SDS011;6713;50.954;5.310;2023-12-07T14:01:42;7.13;;;4.87;;
13289;SDS011;6713;50.954;5.310;2023-12-07T14:04:08;7.90;;;6.23;;
13289;SDS011;6713;50.954;5.310;2023-12-07T14:06:34;6.93;;;5.77;;
13289;SDS011;6713;50.954;5.310;2023-12-07T14:09:01;9.70;;;5.40;;
13289;SDS011;6713;50.954;5.310;2023-12-07T14:11:28;10.40;;;6.07;;
13289;SDS011;6713;50.954;5.310;2023-12-07T14:13:55;7.83;;;5.37;;
13289;SDS011;6713;50.954;5.310;2023-12-07T14:16:22;6.83;;;5.13;;
13289;SDS011;6713;50.954;5.310;2023-12-07T14:18:48;5.93;;;5.33;;
13289;SDS011;6713;50.954;5.310;2023-12-07T14:21:18;6.10;;;5.50;;
13289;SDS011;6713;50.954;5.310;2023-12-07T14:23:45;7.93;;;6.07;;
13289;SDS011;6713;50.954;5.310;2023-12-07T14:26:11;5.50;;;4.97;;
13289;SDS011;6713;50.954;5.310;2023-12-07T14:28:38;6.47;;;5.53;;
13289;SDS011;6713;50.954;5.310;2023-12-07T14:31:06;10.47;;;5.90;;
13289;SDS011;6713;50.954;5.310;2023-12-07T14:33:39;6.17;;;4.87;;
13289;SDS011;6713;50.954;5.310;2023-12-07T14:36:06;7.63;;;4.83;;
13289;SDS011;6713;50.954;5.310;2023-12-07T14:38:34;8.13;;;5.30;;
13289;SDS011;6713;50.954;5.310;2023-12-07T14:41:00;6.83;;;4.80;;
13289;SDS011;6713;50.954;5.310;2023-12-07T14:43:27;8.40;;;5.23;;
13289;SDS011;6713;50.954;5.310;2023-12-07T14:45:53;6.40;;;4.97;;
13289;SDS011;6713;50.954;5.310;2023-12-07T14:48:21;6.30;;;5.27;;
13289;SDS011;6713;50.954;5.310;2023-12-07T14:50:48;5.60;;;5.03;;
13289;SDS011;6713;50.954;5.310;2023-12-07T14:53:15;4.73;;;4.33;;
13289;SDS011;6713;50.954;5.310;2023-12-07T14:55:41;6.00;;;5.10;;
13289;SDS011;6713;50.954;5.310;2023-12-07T14:58:08;6.73;;;5.50;;
13289;SDS011;6713;50.954;5.310;2023-12-07T15:00:34;7.43;;;5.27;;
13289;SDS011;6713;50.954;5.310;2023-12-07T15:03:02;4.97;;;4.50;;
13289;SDS011;6713;50.954;5.310;2023-12-07T15:05:30;5.20;;;4.70;;
13289;SDS011;6713;50.954;5.310;2023-12-07T15:07:57;5.80;;;5.20;;
13289;SDS011;6713;50.954;5.310;2023-12-07T15:10:23;6.60;;;5.13;;
13289;SDS011;6713;50.954;5.310;2023-12-07T15:12:49;5.23;;;4.80;;
13289;SDS011;6713;50.954;5.310;2023-12-07T15:15:16;6.63;;;5.93;;
13289;SDS011;6713;50.954;5.310;2023-12-07T15:17:43;9.43;;;5.00;;
13289;SDS011;6713;50.954;5.310;2023-12-07T15:20:11;8.83;;;5.40;;
13289;SDS011;6713;50.954;5.310;2023-12-07T15:22:38;7.37;;;5.47;;
13289;SDS011;6713;50.954;5.310;2023-12-07T15:25:07;7.33;;;5.10;;